createdAt,value
2023-04-06T00:00:12.783Z,9.13
2023-04-06T00:03:18.202Z,9.50
2023-04-06T00:06:23.580Z,8.65
2023-04-06T00:09:28.821Z,7.93
2023-04-06T00:12:34.492Z,8.38
2023-04-06T00:15:39.547Z,7.32
2023-04-06T00:18:45.471Z,7.50
2023-04-06T00:21:51.819Z,7.22
2023-04-06T00:24:56.929Z,8.27
2023-04-06T00:28:02.633Z,7.55
2023-04-06T00:31:08.131Z,7.70
2023-04-06T00:34:13.555Z,7.80
2023-04-06T00:37:19.111Z,8.40
2023-04-06T00:40:25.209Z,7.60
2023-04-06T00:43:30.794Z,7.65
2023-04-06T00:46:36.835Z,8.27
2023-04-06T00:49:41.938Z,7.70
2023-04-06T00:52:47.223Z,8.27
2023-04-06T00:55:52.952Z,8.15
2023-04-06T00:58:59.582Z,9.27
2023-04-06T01:02:05.599Z,8.13
2023-04-06T01:05:17.849Z,7.68
2023-04-06T01:08:30.142Z,7.68
2023-04-06T01:11:49.845Z,7.07
2023-04-06T01:14:59.056Z,7.60
2023-04-06T01:18:08.128Z,8.05
2023-04-06T01:21:17.042Z,7.32
2023-04-06T01:24:46.389Z,8.73
2023-04-06T01:28:00.963Z,9.52
2023-04-06T01:31:25.923Z,8.30
2023-04-06T01:34:32.382Z,8.77
2023-04-06T01:37:42.271Z,8.50
2023-04-06T01:40:52.756Z,7.90
2023-04-06T01:44:02.972Z,8.30
2023-04-06T01:47:10.133Z,8.35
2023-04-06T01:50:15.717Z,7.95
2023-04-06T01:53:24.546Z,7.80
2023-04-06T01:56:32.161Z,8.32
2023-04-06T01:59:51.179Z,8.68
2023-04-06T02:03:08.569Z,9.25
2023-04-06T02:06:14.266Z,9.13
2023-04-06T02:09:20.262Z,8.32
2023-04-06T02:12:25.836Z,8.45
2023-04-06T02:15:31.536Z,8.70
2023-04-06T02:18:37.934Z,8.27
2023-04-06T02:21:43.916Z,8.82
2023-04-06T02:24:49.738Z,9.18
2023-04-06T02:27:56.492Z,9.23
2023-04-06T02:31:02.490Z,9.43
2023-04-06T02:34:12.383Z,8.27
2023-04-06T02:37:21.836Z,8.88
2023-04-06T02:40:27.218Z,8.15
2023-04-06T02:43:33.956Z,8.57
2023-04-06T02:46:59.907Z,9.25
2023-04-06T02:50:07.098Z,8.52
2023-04-06T02:53:18.101Z,8.40
2023-04-06T02:56:23.766Z,9.27
2023-04-06T02:59:31.141Z,9.90
2023-04-06T03:02:45.685Z,9.00
2023-04-06T03:05:56.099Z,9.25
2023-04-06T03:09:07.880Z,8.68
2023-04-06T03:12:14.352Z,9.63
2023-04-06T03:15:38.676Z,9.18
2023-04-06T03:18:53.601Z,9.30
2023-04-06T03:22:00.109Z,9.55
2023-04-06T03:25:05.999Z,8.30
2023-04-06T03:28:12.640Z,8.55
2023-04-06T03:31:28.669Z,8.38
2023-04-06T03:34:39.688Z,8.63
2023-04-06T03:37:45.067Z,8.48
2023-04-06T03:40:50.896Z,8.00
2023-04-06T03:44:01.343Z,9.52
2023-04-06T03:47:06.922Z,9.48
2023-04-06T03:50:13.146Z,9.00
2023-04-06T03:53:18.454Z,8.77
2023-04-06T03:56:23.722Z,8.50
2023-04-06T03:59:28.994Z,10.27
2023-04-06T04:02:34.191Z,9.20
2023-04-06T04:05:39.864Z,9.20
2023-04-06T04:08:45.645Z,8.02
2023-04-06T04:11:50.850Z,8.80
2023-04-06T04:14:56.309Z,9.75
2023-04-06T04:18:02.201Z,10.13
2023-04-06T04:21:07.554Z,14.75
2023-04-06T04:24:13.639Z,11.27
2023-04-06T04:27:19.455Z,9.45
2023-04-06T04:30:28.005Z,10.95
2023-04-06T04:33:33.174Z,9.77
2023-04-06T04:36:43.552Z,9.48
2023-04-06T04:39:54.294Z,10.80
2023-04-06T04:42:59.584Z,11.35
2023-04-06T04:49:20.788Z,12.15
2023-04-06T04:52:28.694Z,9.10
2023-04-06T04:55:52.536Z,10.43
2023-04-06T04:58:58.976Z,8.63
2023-04-06T05:02:07.179Z,9.63
2023-04-06T05:05:21.420Z,9.95
2023-04-06T05:08:28.841Z,9.30
2023-04-06T05:11:34.294Z,11.95
2023-04-06T05:14:40.278Z,11.07
2023-04-06T05:17:52.115Z,10.77
2023-04-06T05:21:02.559Z,10.65
2023-04-06T05:24:16.672Z,10.52
2023-04-06T05:27:24.464Z,9.23
2023-04-06T05:30:30.084Z,9.65
2023-04-06T05:33:35.669Z,12.25
2023-04-06T05:36:53.402Z,10.18
2023-04-06T05:40:02.912Z,9.43
2023-04-06T05:43:09.739Z,9.35
2023-04-06T05:46:19.783Z,9.82
2023-04-06T05:49:25.268Z,11.30
2023-04-06T05:52:31.092Z,8.98
2023-04-06T05:55:36.643Z,10.30
2023-04-06T05:58:50.583Z,9.75
2023-04-06T06:02:02.699Z,10.43
2023-04-06T06:05:12.006Z,10.43
2023-04-06T06:08:20.489Z,10.82
2023-04-06T06:11:29.644Z,10.27
2023-04-06T06:14:36.297Z,9.65
2023-04-06T06:17:42.277Z,10.10
2023-04-06T06:20:47.580Z,10.45
2023-04-06T06:23:55.140Z,10.10
2023-04-06T06:27:01.434Z,10.75
2023-04-06T06:30:11.182Z,11.00
2023-04-06T06:33:20.362Z,9.50
2023-04-06T06:36:28.425Z,9.23
2023-04-06T06:39:34.344Z,9.65
2023-04-06T06:42:40.024Z,9.55
2023-04-06T06:45:59.993Z,9.02
2023-04-06T06:49:06.758Z,10.27
2023-04-06T06:52:12.613Z,10.25
2023-04-06T06:55:20.265Z,9.40
2023-04-06T06:58:25.721Z,9.43
2023-04-06T07:01:30.978Z,9.20
2023-04-06T07:04:36.967Z,10.38
2023-04-06T07:07:42.572Z,9.43
2023-04-06T07:10:48.755Z,8.13
2023-04-06T07:13:54.527Z,7.88
2023-04-06T07:17:00.628Z,7.18
2023-04-06T07:20:06.892Z,8.48
2023-04-06T07:23:12.933Z,7.88
2023-04-06T07:26:18.327Z,6.97
2023-04-06T07:29:24.219Z,6.38
2023-04-06T07:32:31.291Z,6.80
2023-04-06T07:35:38.444Z,6.18
2023-04-06T07:38:47.222Z,6.07
2023-04-06T07:41:52.812Z,5.45
2023-04-06T07:44:58.652Z,6.03
2023-04-06T07:48:04.891Z,6.30
2023-04-06T07:51:15.597Z,7.63
2023-04-06T07:54:22.666Z,7.28
2023-04-06T07:57:28.119Z,6.50
2023-04-06T08:00:34.582Z,8.45
2023-04-06T08:03:40.507Z,8.40
2023-04-06T08:06:46.317Z,8.07
2023-04-06T08:09:53.135Z,8.27
2023-04-06T08:12:58.858Z,8.02
2023-04-06T08:16:04.789Z,8.68
2023-04-06T08:19:10.701Z,7.75
2023-04-06T08:22:16.233Z,7.75
2023-04-06T08:25:21.470Z,6.97
2023-04-06T08:28:26.678Z,8.02
2023-04-06T08:31:32.397Z,6.85
2023-04-06T08:34:38.550Z,7.00
2023-04-06T08:37:44.292Z,5.97
2023-04-06T08:40:52.256Z,10.55
2023-04-06T08:44:02.621Z,8.80
2023-04-06T08:47:08.242Z,6.25
2023-04-06T08:50:14.700Z,7.07
2023-04-06T08:53:22.910Z,6.25
2023-04-06T08:56:29.848Z,6.65
2023-04-06T08:59:36.382Z,6.72
2023-04-06T09:02:46.073Z,6.47
2023-04-06T09:05:52.100Z,6.90
2023-04-06T09:08:59.597Z,7.07
2023-04-06T09:12:07.469Z,6.35
2023-04-06T09:15:23.623Z,5.20
2023-04-06T09:18:35.453Z,5.57
2023-04-06T09:21:41.387Z,6.70
2023-04-06T09:24:54.269Z,5.93
2023-04-06T09:28:05.573Z,6.22
2023-04-06T09:31:11.363Z,7.07
2023-04-06T09:34:26.568Z,6.28
2023-04-06T09:37:31.978Z,4.93
2023-04-06T09:40:41.460Z,4.65
2023-04-06T09:43:53.499Z,4.03
2023-04-06T09:47:00.816Z,4.93
2023-04-06T09:50:10.520Z,5.70
2023-04-06T09:53:21.643Z,5.38
2023-04-06T09:56:32.408Z,6.18
2023-04-06T09:59:56.346Z,7.10
2023-04-06T10:03:14.030Z,6.20
2023-04-06T10:06:24.217Z,5.90
2023-04-06T10:09:36.905Z,6.25
2023-04-06T10:12:43.177Z,5.90
2023-04-06T10:15:49.763Z,5.18
2023-04-06T10:19:03.681Z,5.45
2023-04-06T10:22:13.991Z,5.80
2023-04-06T10:25:31.511Z,5.90
2023-04-06T10:28:37.595Z,5.47
2023-04-06T10:31:45.634Z,5.18
2023-04-06T10:34:51.179Z,5.20
2023-04-06T10:38:05.872Z,6.30
2023-04-06T10:41:13.148Z,6.18
2023-04-06T10:44:22.944Z,6.07
2023-04-06T10:47:28.130Z,5.68
2023-04-06T10:50:35.142Z,5.75
2023-04-06T10:53:43.775Z,6.22
2023-04-06T10:56:50.083Z,6.25
2023-04-06T10:59:55.821Z,6.90
2023-04-06T11:03:04.658Z,6.32
2023-04-06T11:06:10.160Z,6.95
2023-04-06T11:09:26.434Z,6.15
2023-04-06T11:12:32.149Z,7.57
2023-04-06T11:15:39.420Z,8.07
2023-04-06T11:19:09.029Z,7.72
2023-04-06T11:22:14.811Z,7.25
2023-04-06T11:25:20.726Z,7.20
2023-04-06T11:28:26.324Z,7.40
2023-04-06T11:31:31.529Z,6.90
2023-04-06T11:34:42.271Z,7.35
2023-04-06T11:37:47.853Z,7.70
2023-04-06T11:40:56.307Z,7.70
2023-04-06T11:44:06.686Z,7.72
2023-04-06T11:47:12.653Z,7.85
2023-04-06T11:50:17.979Z,8.85
2023-04-06T11:53:23.154Z,7.15
2023-04-06T11:56:30.676Z,8.00
2023-04-06T11:59:37.182Z,8.25
2023-04-06T12:02:48.504Z,8.38
2023-04-06T12:05:53.891Z,9.05
2023-04-06T12:08:59.355Z,8.77
2023-04-06T12:12:05.107Z,9.10
2023-04-06T12:15:11.178Z,9.00
2023-04-06T12:18:16.911Z,9.10
2023-04-06T12:21:22.284Z,8.25
2023-04-06T12:24:28.960Z,8.38
2023-04-06T12:27:34.641Z,8.20
2023-04-06T12:30:40.798Z,7.80
2023-04-06T12:33:52.654Z,9.07
2023-04-06T12:36:58.560Z,8.52
2023-04-06T12:40:05.554Z,9.00
2023-04-06T12:43:11.264Z,9.30
2023-04-06T12:46:17.181Z,8.38
2023-04-06T12:49:23.242Z,8.55
2023-04-06T12:52:31.759Z,9.50
2023-04-06T12:55:37.580Z,7.10
2023-04-06T12:58:43.350Z,8.30
2023-04-06T13:01:49.048Z,8.63
2023-04-06T13:04:54.314Z,8.57
2023-04-06T13:07:59.770Z,8.25
2023-04-06T13:11:06.286Z,8.35
2023-04-06T13:14:11.437Z,8.32
2023-04-06T13:17:17.977Z,8.48
2023-04-06T13:20:23.015Z,8.68
2023-04-06T13:23:28.521Z,8.10
2023-04-06T13:26:34.191Z,8.02
2023-04-06T13:29:39.886Z,9.38
2023-04-06T13:32:45.764Z,7.45
2023-04-06T13:35:51.599Z,7.53
2023-04-06T13:38:57.362Z,7.90
2023-04-06T13:42:04.274Z,8.38
2023-04-06T13:45:11.109Z,8.98
2023-04-06T13:48:16.702Z,8.68
2023-04-06T13:51:21.924Z,7.28
2023-04-06T13:54:28.599Z,8.30
2023-04-06T13:57:34.324Z,8.85
2023-04-06T14:00:39.834Z,8.80
2023-04-06T14:03:48.839Z,8.38
2023-04-06T14:06:54.244Z,8.65
2023-04-06T14:09:59.837Z,7.68
2023-04-06T14:13:05.457Z,7.45
2023-04-06T14:16:10.839Z,8.50
2023-04-06T14:19:22.039Z,7.28
2023-04-06T14:22:27.610Z,7.53
2023-04-06T14:25:33.476Z,7.75
2023-04-06T14:28:39.229Z,7.30
2023-04-06T14:31:48.788Z,7.85
2023-04-06T14:34:54.614Z,8.18
2023-04-06T14:38:00.165Z,7.45
2023-04-06T14:41:05.332Z,8.32
2023-04-06T14:44:13.474Z,7.40
2023-04-06T14:47:21.747Z,8.32
2023-04-06T14:50:27.510Z,7.30
2023-04-06T14:53:33.037Z,7.28
2023-04-06T14:56:39.933Z,7.10
2023-04-06T14:59:45.627Z,7.35
2023-04-06T15:02:51.454Z,7.53
2023-04-06T15:05:58.086Z,7.00
2023-04-06T15:09:04.180Z,8.23
2023-04-06T15:12:10.056Z,7.20
2023-04-06T15:15:15.630Z,7.68
2023-04-06T15:18:21.486Z,7.47
2023-04-06T15:21:28.148Z,8.27
2023-04-06T15:24:33.687Z,7.95
2023-04-06T15:27:39.144Z,8.60
2023-04-06T15:30:44.523Z,7.20
2023-04-06T15:33:50.214Z,7.43
2023-04-06T15:36:56.013Z,7.78
2023-04-06T15:40:01.929Z,7.43
2023-04-06T15:43:07.108Z,7.57
2023-04-06T15:46:12.881Z,7.47
2023-04-06T15:49:18.575Z,6.85
2023-04-06T15:52:24.062Z,7.20
2023-04-06T15:55:29.651Z,7.07
2023-04-06T15:58:34.968Z,7.75
2023-04-06T16:01:42.642Z,7.40
2023-04-06T16:04:48.131Z,7.47
2023-04-06T16:07:53.819Z,7.53
2023-04-06T16:10:59.453Z,7.07
2023-04-06T16:14:05.543Z,8.02
2023-04-06T16:17:10.937Z,7.97
2023-04-06T16:20:16.589Z,7.40
2023-04-06T16:23:22.537Z,7.47
2023-04-06T16:26:27.863Z,7.82
2023-04-06T16:29:36.035Z,7.13
2023-04-06T16:32:43.661Z,9.40
2023-04-06T16:35:49.544Z,8.40
2023-04-06T16:39:00.067Z,8.25
2023-04-06T16:42:05.632Z,8.70
2023-04-06T16:45:12.115Z,8.82
2023-04-06T16:48:18.511Z,8.48
2023-04-06T16:51:24.152Z,8.25
2023-04-06T16:54:29.757Z,8.45
2023-04-06T16:57:34.939Z,8.30
2023-04-06T17:00:40.894Z,7.93
2023-04-06T17:03:47.815Z,8.50
2023-04-06T17:06:53.232Z,8.13
2023-04-06T17:10:03.788Z,8.23
2023-04-06T17:13:09.368Z,8.73
2023-04-06T17:16:14.519Z,8.52
2023-04-06T17:19:20.048Z,9.45
2023-04-06T17:22:25.607Z,9.05
2023-04-06T17:25:31.203Z,7.68
2023-04-06T17:28:37.085Z,8.75
2023-04-06T17:31:45.288Z,7.95
2023-04-06T17:34:51.137Z,9.35
2023-04-06T17:37:56.591Z,8.82
2023-04-06T17:41:05.252Z,9.30
2023-04-06T17:44:10.863Z,9.75
2023-04-06T17:47:16.773Z,8.50
2023-04-06T17:50:22.120Z,9.88
2023-04-06T17:53:30.916Z,9.65
2023-04-06T17:56:36.165Z,9.77
2023-04-06T17:59:43.903Z,9.25
2023-04-06T18:02:54.922Z,9.38
2023-04-06T18:06:14.801Z,9.15
2023-04-06T18:09:20.080Z,8.35
2023-04-06T18:12:25.759Z,8.80
2023-04-06T18:15:31.602Z,9.73
2023-04-06T18:18:39.281Z,9.45
2023-04-06T18:21:44.959Z,9.88
2023-04-06T18:24:50.612Z,8.88
2023-04-06T18:27:55.771Z,8.10
2023-04-06T18:31:05.427Z,8.23
2023-04-06T18:34:11.494Z,8.82
2023-04-06T18:37:16.884Z,9.25
2023-04-06T18:40:39.922Z,9.57
2023-04-06T18:43:45.255Z,10.27
2023-04-06T18:46:53.388Z,9.90
2023-04-06T18:50:00.029Z,12.35
2023-04-06T18:53:05.355Z,17.77
2023-04-06T18:56:19.518Z,17.60
2023-04-06T18:59:26.997Z,16.63
2023-04-06T19:02:33.746Z,13.40
2023-04-06T19:05:42.003Z,12.55
2023-04-06T19:08:47.596Z,11.60
2023-04-06T19:11:52.887Z,11.95
2023-04-06T19:14:58.287Z,11.45
2023-04-06T19:18:04.615Z,12.60
2023-04-06T19:21:21.803Z,13.00
2023-04-06T19:24:26.867Z,11.48
2023-04-06T19:27:32.546Z,12.65
2023-04-06T19:30:38.075Z,12.23
2023-04-06T19:33:44.906Z,11.80
2023-04-06T19:36:50.120Z,11.52
2023-04-06T19:39:55.573Z,11.10
2023-04-06T19:43:01.159Z,11.75
2023-04-06T19:46:06.583Z,11.60
2023-04-06T19:49:15.730Z,13.93
2023-04-06T19:52:23.072Z,19.42
2023-04-06T19:55:28.707Z,25.52
2023-04-06T19:58:34.280Z,25.95
2023-04-06T20:01:39.753Z,21.25
2023-04-06T20:04:44.836Z,15.50
2023-04-06T20:07:50.421Z,12.68
2023-04-06T20:11:05.121Z,11.52
2023-04-06T20:14:10.359Z,11.18
2023-04-06T20:17:15.770Z,11.65
2023-04-06T20:20:21.255Z,13.05
2023-04-06T20:23:27.275Z,15.27
2023-04-06T20:26:32.735Z,16.77
2023-04-06T20:29:38.717Z,15.00
2023-04-06T20:32:44.334Z,13.30
2023-04-06T20:35:57.680Z,14.23
2023-04-06T20:39:03.770Z,14.13
2023-04-06T20:42:09.386Z,13.18
2023-04-06T20:45:14.638Z,12.77
2023-04-06T20:48:19.805Z,12.65
2023-04-06T20:51:25.803Z,12.23
2023-04-06T20:54:30.951Z,11.57
2023-04-06T20:57:36.379Z,12.57
2023-04-06T21:00:41.629Z,12.15
2023-04-06T21:03:47.022Z,12.05
2023-04-06T21:06:52.480Z,12.90
2023-04-06T21:09:58.112Z,13.73
2023-04-06T21:13:03.576Z,14.85
2023-04-06T21:16:08.814Z,14.65
2023-04-06T21:19:14.155Z,15.32
2023-04-06T21:22:19.314Z,16.95
2023-04-06T21:25:24.498Z,19.13
2023-04-06T21:28:30.449Z,18.60
2023-04-06T21:31:41.317Z,19.90
2023-04-06T21:34:47.114Z,19.92
2023-04-06T21:37:52.802Z,18.60
2023-04-06T21:40:58.203Z,17.88
2023-04-06T21:44:03.675Z,17.48
2023-04-06T21:47:09.371Z,16.98
2023-04-06T21:50:14.741Z,16.20
2023-04-06T21:53:20.522Z,15.45
2023-04-06T21:56:26.681Z,15.38
2023-04-06T21:59:32.996Z,16.00
2023-04-06T22:02:39.622Z,15.57
2023-04-06T22:05:45.394Z,15.45
2023-04-06T22:08:51.221Z,15.40
2023-04-06T22:11:57.016Z,15.30
2023-04-06T22:15:02.959Z,15.95
2023-04-06T22:18:08.471Z,15.88
2023-04-06T22:21:13.805Z,15.45
2023-04-06T22:24:18.823Z,16.70
2023-04-06T22:27:24.230Z,14.02
2023-04-06T22:30:29.650Z,15.73
2023-04-06T22:33:35.294Z,15.00
2023-04-06T22:36:41.483Z,15.95
2023-04-06T22:39:46.733Z,14.27
2023-04-06T22:42:52.244Z,14.48
2023-04-06T22:45:57.610Z,15.35
2023-04-06T22:49:04.371Z,16.33
2023-04-06T22:52:09.676Z,13.68
2023-04-06T22:55:15.622Z,15.95
2023-04-06T22:58:20.847Z,13.70
2023-04-06T23:01:26.046Z,15.38
2023-04-06T23:04:31.444Z,14.38
2023-04-06T23:07:36.988Z,14.32
2023-04-06T23:10:42.869Z,15.90
2023-04-06T23:13:48.251Z,17.10
2023-04-06T23:16:53.631Z,14.10
2023-04-06T23:19:58.989Z,16.27
2023-04-06T23:23:04.433Z,15.50
2023-04-06T23:26:09.745Z,16.58
2023-04-06T23:29:15.056Z,15.98
2023-04-06T23:32:20.215Z,18.35
2023-04-06T23:35:25.409Z,16.67
2023-04-06T23:38:30.371Z,16.58
2023-04-06T23:41:35.878Z,16.02
2023-04-06T23:44:41.680Z,14.70
2023-04-06T23:47:47.346Z,14.73
2023-04-06T23:50:52.986Z,17.42
2023-04-06T23:53:58.907Z,18.10
2023-04-06T23:57:04.724Z,14.95
